createdAt,value
2022-08-07T00:01:44.288Z,67.65
2022-08-07T00:04:09.518Z,67.52
2022-08-07T00:06:40.930Z,68.48
2022-08-07T00:09:29.217Z,68.42
2022-08-07T00:12:03.861Z,67.34
2022-08-07T00:14:32.402Z,67.72
2022-08-07T00:17:01.862Z,68.92
2022-08-07T00:20:00.360Z,69.52
2022-08-07T00:22:24.527Z,70.01
2022-08-07T00:25:07.030Z,70.05
2022-08-07T00:27:53.274Z,69.09
2022-08-07T00:30:26.986Z,68.82
2022-08-07T00:33:02.061Z,68.79
2022-08-07T00:35:30.635Z,69.90
2022-08-07T00:37:59.220Z,70.00
2022-08-07T00:40:39.358Z,69.72
2022-08-07T00:43:59.373Z,69.59
2022-08-07T00:46:01.889Z,69.97
2022-08-07T00:48:32.249Z,70.09
2022-08-07T00:51:02.260Z,70.68
2022-08-07T00:53:38.836Z,71.13
2022-08-07T00:56:18.295Z,69.96
2022-08-07T00:58:47.417Z,69.50
2022-08-07T01:01:19.923Z,70.34
2022-08-07T01:03:56.150Z,70.93
2022-08-07T01:06:28.837Z,70.75
2022-08-07T01:08:58.569Z,71.70
2022-08-07T01:12:27.438Z,71.34
2022-08-07T01:14:28.879Z,71.64
2022-08-07T01:16:58.757Z,70.55
2022-08-07T01:19:32.414Z,71.18
2022-08-07T01:22:01.072Z,71.13
2022-08-07T01:24:38.332Z,71.74
2022-08-07T01:27:06.910Z,71.75
2022-08-07T01:29:48.501Z,72.25
2022-08-07T01:32:19.851Z,71.87
2022-08-07T01:34:51.580Z,72.32
2022-08-07T01:37:19.268Z,72.58
2022-08-07T01:39:49.837Z,72.53
2022-08-07T01:42:38.433Z,72.21
2022-08-07T01:45:22.704Z,73.12
2022-08-07T01:48:21.583Z,73.25
2022-08-07T01:50:42.968Z,73.59
2022-08-07T01:53:21.125Z,72.61
2022-08-07T01:56:06.173Z,72.67
2022-08-07T01:59:09.385Z,72.42
2022-08-07T02:02:01.893Z,72.71
2022-08-07T02:04:52.567Z,72.53
2022-08-07T02:07:50.134Z,72.59
2022-08-07T02:10:25.263Z,74.16
2022-08-07T02:12:57.371Z,73.85
2022-08-07T02:15:33.975Z,74.29
2022-08-07T02:18:02.866Z,74.82
2022-08-07T02:20:32.843Z,73.86
2022-08-07T02:23:05.356Z,73.96
2022-08-07T02:26:30.414Z,73.76
2022-08-07T02:28:27.024Z,74.38
2022-08-07T02:30:58.782Z,75.39
2022-08-07T02:33:41.956Z,74.45
2022-08-07T02:36:29.162Z,75.73
2022-08-07T02:39:09.441Z,74.80
2022-08-07T02:41:50.570Z,74.68
2022-08-07T02:44:24.115Z,74.85
2022-08-07T02:46:57.094Z,75.73
2022-08-07T02:49:28.603Z,76.13
2022-08-07T02:51:59.275Z,76.15
2022-08-07T02:54:29.034Z,76.53
2022-08-07T02:57:01.355Z,76.92
2022-08-07T02:59:31.898Z,77.54
2022-08-07T03:02:02.581Z,76.61
2022-08-07T03:04:30.859Z,76.57
2022-08-07T03:07:07.153Z,76.70
2022-08-07T03:09:43.559Z,77.49
2022-08-07T03:12:22.707Z,76.91
2022-08-07T03:15:02.381Z,76.00
2022-08-07T03:17:53.335Z,75.98
2022-08-07T03:20:24.025Z,75.94
2022-08-07T03:22:53.674Z,76.03
2022-08-07T03:25:23.411Z,76.35
2022-08-07T03:27:59.098Z,75.74
2022-08-07T03:30:37.430Z,75.18
2022-08-07T03:33:08.645Z,75.11
2022-08-07T03:35:44.151Z,74.95
2022-08-07T03:38:21.243Z,75.18
2022-08-07T03:40:53.951Z,75.46
2022-08-07T03:43:26.801Z,75.12
2022-08-07T03:46:02.981Z,74.97
2022-08-07T03:48:33.570Z,75.77
2022-08-07T03:51:13.984Z,76.09
2022-08-07T03:54:05.713Z,76.26
2022-08-07T03:56:33.307Z,75.62
2022-08-07T03:59:09.813Z,75.68
2022-08-07T04:01:45.546Z,75.65
2022-08-07T04:04:17.615Z,75.84
2022-08-07T04:06:46.563Z,75.35
2022-08-07T04:09:23.432Z,75.26
2022-08-07T04:12:23.412Z,75.72
2022-08-07T04:14:47.822Z,75.22
2022-08-07T04:17:20.761Z,74.70
2022-08-07T04:19:55.233Z,74.97
2022-08-07T04:22:30.013Z,74.70
2022-08-07T04:25:01.813Z,74.63
2022-08-07T04:27:35.460Z,74.19
2022-08-07T04:30:35.641Z,73.77
2022-08-07T04:33:07.445Z,73.70
2022-08-07T04:35:37.537Z,73.67
2022-08-07T04:38:09.231Z,73.29
2022-08-07T04:40:52.732Z,73.04
2022-08-07T04:44:11.964Z,72.59
2022-08-07T04:46:59.581Z,72.03
2022-08-07T04:50:04.146Z,71.77
2022-08-07T04:52:53.578Z,71.46
2022-08-07T04:58:12.052Z,70.73
2022-08-07T04:58:38.757Z,69.96
2022-08-07T05:02:08.690Z,68.71
2022-08-07T05:05:11.894Z,68.67
2022-08-07T05:08:08.423Z,68.05
2022-08-07T05:10:51.174Z,68.19
2022-08-07T05:14:55.213Z,67.89
2022-08-07T05:16:25.772Z,67.41
2022-08-07T05:18:56.583Z,67.46
2022-08-07T05:22:00.247Z,67.07
2022-08-07T05:24:17.508Z,66.44
2022-08-07T05:26:47.237Z,66.46
2022-08-07T05:29:17.230Z,65.58
2022-08-07T05:31:51.207Z,65.29
2022-08-07T05:34:26.302Z,65.30
2022-08-07T05:36:55.554Z,65.00
2022-08-07T05:40:05.457Z,64.53
2022-08-07T05:42:34.269Z,63.90
2022-08-07T05:45:26.327Z,63.84
2022-08-07T05:48:16.579Z,63.92
2022-08-07T05:50:46.041Z,63.87
2022-08-07T05:54:14.151Z,63.95
2022-08-07T05:56:06.234Z,63.64
2022-08-07T05:58:52.316Z,63.69
2022-08-07T06:01:27.458Z,63.56
2022-08-07T06:04:10.468Z,63.55
2022-08-07T06:06:46.416Z,63.58
2022-08-07T06:09:16.767Z,63.33
2022-08-07T06:11:46.534Z,63.16
2022-08-07T06:14:20.999Z,63.14
2022-08-07T06:16:55.818Z,62.63
2022-08-07T06:19:52.005Z,62.87
2022-08-07T06:22:50.555Z,62.66
2022-08-07T06:25:34.843Z,62.10
2022-08-07T06:28:14.212Z,61.81
2022-08-07T06:30:45.868Z,61.68
2022-08-07T06:33:17.889Z,62.15
2022-08-07T06:36:06.101Z,61.93
2022-08-07T06:38:35.162Z,62.14
2022-08-07T06:41:13.022Z,61.95
2022-08-07T06:43:46.447Z,61.48
2022-08-07T06:46:35.124Z,61.50
2022-08-07T06:49:05.162Z,61.71
2022-08-07T06:51:49.605Z,61.50
2022-08-07T06:55:32.586Z,61.41
2022-08-07T06:57:09.239Z,61.60
2022-08-07T07:00:13.789Z,61.38
2022-08-07T07:02:53.496Z,61.15
2022-08-07T07:06:03.615Z,60.85
2022-08-07T07:08:12.453Z,60.85
2022-08-07T07:10:54.951Z,60.87
2022-08-07T07:13:55.872Z,60.98
2022-08-07T07:16:30.277Z,60.71
2022-08-07T07:19:23.606Z,60.45
2022-08-07T07:22:04.825Z,60.43
2022-08-07T07:24:43.004Z,60.34
2022-08-07T07:27:35.571Z,59.74
2022-08-07T07:30:32.483Z,59.47
2022-08-07T07:33:01.373Z,59.37
2022-08-07T07:35:33.477Z,59.24
2022-08-07T07:38:05.758Z,58.95
2022-08-07T07:40:34.138Z,58.82
2022-08-07T07:43:15.306Z,58.48
2022-08-07T07:46:36.868Z,58.55
2022-08-07T07:48:36.481Z,57.84
2022-08-07T07:51:07.708Z,57.34
2022-08-07T07:53:52.109Z,57.10
2022-08-07T07:56:30.531Z,56.97
2022-08-07T07:59:04.377Z,56.91
2022-08-07T08:02:02.944Z,56.73
2022-08-07T08:04:25.718Z,56.41
2022-08-07T08:06:54.929Z,56.66
2022-08-07T08:09:25.948Z,55.39
2022-08-07T08:12:02.622Z,54.16
2022-08-07T08:14:34.247Z,54.16
2022-08-07T08:17:56.094Z,54.46
2022-08-07T08:20:17.446Z,52.72
2022-08-07T08:23:09.280Z,52.53
2022-08-07T08:25:58.481Z,52.44
2022-08-07T08:28:37.398Z,51.64
2022-08-07T08:32:16.729Z,51.70
2022-08-07T08:34:32.870Z,50.77
2022-08-07T08:37:02.967Z,49.41
2022-08-07T08:39:39.832Z,49.50
2022-08-07T08:42:52.863Z,50.29
2022-08-07T08:45:59.219Z,50.98
2022-08-07T08:48:42.472Z,50.57
2022-08-07T08:52:00.892Z,49.96
2022-08-07T08:54:50.812Z,48.45
2022-08-07T08:57:38.052Z,47.08
2022-08-07T09:00:12.264Z,46.87
2022-08-07T09:02:40.310Z,46.74
2022-08-07T09:05:37.810Z,48.01
2022-08-07T09:08:28.454Z,47.94
2022-08-07T09:11:24.296Z,47.64
2022-08-07T09:14:20.329Z,48.86
2022-08-07T09:16:57.631Z,49.82
2022-08-07T09:20:35.968Z,49.90
2022-08-07T09:24:54.123Z,49.65
2022-08-07T09:26:27.776Z,49.41
2022-08-07T09:30:06.615Z,49.77
2022-08-07T09:33:05.710Z,49.36
2022-08-07T09:36:35.067Z,48.96
2022-08-07T09:39:54.218Z,48.88
2022-08-07T09:42:11.902Z,46.72
2022-08-07T09:47:24.017Z,47.60
2022-08-07T09:48:29.709Z,48.02
2022-08-07T09:51:25.926Z,48.42
2022-08-07T09:54:02.631Z,49.48
2022-08-07T09:56:51.724Z,49.86
2022-08-07T09:59:44.355Z,50.39
2022-08-07T10:02:55.387Z,51.75
2022-08-07T10:06:12.264Z,51.98
2022-08-07T10:09:15.171Z,52.27
2022-08-07T10:12:53.115Z,52.27
2022-08-07T10:16:09.755Z,52.88
2022-08-07T10:19:24.674Z,53.01
2022-08-07T10:22:24.868Z,53.12
2022-08-07T10:25:22.661Z,52.79
2022-08-07T10:28:17.386Z,52.93
2022-08-07T10:31:31.464Z,53.38
2022-08-07T10:34:37.712Z,53.30
2022-08-07T10:38:21.211Z,53.45
2022-08-07T10:41:04.182Z,53.31
2022-08-07T10:43:43.031Z,53.67
2022-08-07T10:46:20.011Z,53.62
2022-08-07T10:49:49.095Z,53.66
2022-08-07T10:52:55.303Z,54.23
2022-08-07T10:55:37.971Z,54.49
2022-08-07T10:58:48.181Z,54.48
2022-08-07T11:02:12.447Z,54.01
2022-08-07T11:05:50.780Z,54.04
2022-08-07T11:08:32.431Z,53.78
2022-08-07T11:11:25.464Z,53.54
2022-08-07T11:14:44.915Z,53.59
2022-08-07T11:17:42.597Z,53.37
2022-08-07T11:20:19.910Z,53.27
2022-08-07T11:23:36.598Z,53.15
2022-08-07T11:26:48.096Z,52.61
2022-08-07T11:30:10.051Z,52.58
2022-08-07T11:33:01.269Z,52.38
2022-08-07T11:36:10.444Z,52.11
2022-08-07T11:38:59.814Z,52.55
2022-08-07T11:42:00.433Z,52.53
2022-08-07T11:45:35.561Z,52.60
2022-08-07T11:48:29.129Z,52.67
2022-08-07T11:51:41.340Z,52.68
2022-08-07T11:54:46.485Z,52.38
2022-08-07T11:57:57.877Z,52.42
2022-08-07T12:01:02.238Z,52.32
2022-08-07T12:03:49.641Z,51.80
2022-08-07T12:06:39.027Z,52.10
2022-08-07T12:09:09.639Z,51.82
2022-08-07T12:12:09.179Z,51.40
2022-08-07T12:15:01.200Z,51.16
2022-08-07T12:17:39.228Z,51.00
2022-08-07T12:20:36.525Z,50.75
2022-08-07T12:23:21.396Z,50.75
2022-08-07T12:26:41.986Z,50.47
2022-08-07T12:30:04.626Z,50.73
2022-08-07T12:32:58.586Z,50.67
2022-08-07T12:35:26.979Z,50.47
2022-08-07T12:38:11.339Z,49.86
2022-08-07T12:40:50.397Z,49.91
2022-08-07T12:44:01.381Z,49.91
2022-08-07T12:46:41.284Z,49.63
2022-08-07T12:49:51.567Z,49.66
2022-08-07T12:52:41.728Z,50.06
2022-08-07T12:56:02.762Z,50.59
2022-08-07T12:58:37.053Z,50.40
2022-08-07T13:01:32.057Z,50.56
2022-08-07T13:04:31.707Z,50.56
2022-08-07T13:08:13.945Z,50.56
2022-08-07T13:11:01.825Z,50.48
2022-08-07T13:13:55.152Z,50.58
2022-08-07T13:16:41.271Z,50.53
2022-08-07T13:19:50.886Z,50.57
2022-08-07T13:22:53.367Z,50.74
2022-08-07T13:25:30.641Z,50.93
2022-08-07T13:28:14.294Z,50.65
2022-08-07T13:31:13.333Z,50.03
2022-08-07T13:34:33.414Z,49.87
2022-08-07T13:36:44.880Z,49.93
2022-08-07T13:40:36.276Z,49.87
2022-08-07T13:42:53.190Z,49.66
2022-08-07T13:46:11.142Z,49.49
2022-08-07T13:48:27.454Z,49.40
2022-08-07T13:51:00.221Z,49.27
2022-08-07T13:53:59.576Z,49.00
2022-08-07T13:56:36.274Z,49.01
2022-08-07T13:59:21.943Z,49.04
2022-08-07T14:02:08.072Z,49.32
2022-08-07T14:04:54.437Z,49.23
2022-08-07T14:08:01.360Z,49.13
2022-08-07T14:10:44.827Z,49.07
2022-08-07T14:13:33.189Z,49.07
2022-08-07T14:16:06.379Z,49.19
2022-08-07T14:18:56.748Z,49.44
2022-08-07T14:22:03.093Z,49.79
2022-08-07T14:24:35.459Z,49.97
2022-08-07T14:27:16.169Z,49.98
2022-08-07T14:30:08.091Z,50.09
2022-08-07T14:32:50.501Z,50.11
2022-08-07T14:35:45.349Z,50.16
2022-08-07T14:38:26.839Z,50.06
2022-08-07T14:43:55.512Z,49.98
2022-08-07T14:46:32.004Z,50.07
2022-08-07T14:49:56.086Z,50.60
2022-08-07T14:52:05.032Z,50.42
2022-08-07T14:54:42.154Z,50.63
2022-08-07T14:57:19.665Z,50.58
2022-08-07T15:00:03.172Z,50.73
2022-08-07T15:02:39.405Z,50.69
2022-08-07T15:05:20.084Z,50.92
2022-08-07T15:08:05.063Z,50.96
2022-08-07T15:10:36.645Z,50.88
2022-08-07T15:13:18.313Z,50.85
2022-08-07T15:15:52.198Z,50.88
2022-08-07T15:18:46.362Z,50.77
2022-08-07T15:25:13.285Z,50.87
2022-08-07T15:27:16.831Z,50.83
2022-08-07T15:30:08.844Z,50.58
2022-08-07T15:32:50.672Z,50.87
2022-08-07T15:36:00.841Z,51.05
2022-08-07T15:41:24.422Z,51.28
2022-08-07T15:44:14.714Z,51.47
2022-08-07T15:50:04.282Z,51.87
2022-08-07T15:52:30.782Z,52.03
2022-08-07T15:55:03.865Z,52.08
2022-08-07T15:57:39.946Z,52.35
2022-08-07T16:00:31.078Z,52.50
2022-08-07T16:03:46.111Z,52.53
2022-08-07T16:06:16.650Z,52.66
2022-08-07T16:08:46.433Z,52.94
2022-08-07T16:11:42.933Z,53.14
2022-08-07T16:14:53.686Z,53.37
2022-08-07T16:18:01.926Z,53.32
2022-08-07T16:22:01.593Z,53.73
2022-08-07T16:24:34.420Z,53.92
2022-08-07T16:27:18.642Z,54.02
2022-08-07T16:30:11.085Z,54.07
2022-08-07T16:34:02.073Z,54.00
2022-08-07T16:36:19.898Z,54.48
2022-08-07T16:39:49.379Z,54.72
2022-08-07T16:42:47.873Z,55.02
2022-08-07T16:46:21.331Z,55.29
2022-08-07T16:50:27.053Z,55.68
2022-08-07T16:52:50.771Z,55.88
2022-08-07T16:55:50.324Z,55.89
2022-08-07T16:59:10.804Z,56.44
2022-08-07T17:02:08.999Z,56.69
2022-08-07T17:06:19.514Z,57.08
2022-08-07T17:09:09.807Z,57.21
2022-08-07T17:12:05.170Z,58.13
2022-08-07T17:14:48.724Z,58.64
2022-08-07T17:17:46.411Z,58.78
2022-08-07T17:20:21.438Z,58.61
2022-08-07T17:23:40.179Z,59.02
2022-08-07T17:26:23.419Z,59.23
2022-08-07T17:29:09.102Z,59.71
2022-08-07T17:32:03.211Z,60.44
2022-08-07T17:35:40.706Z,61.08
2022-08-07T17:38:09.428Z,60.87
2022-08-07T17:40:43.997Z,60.91
2022-08-07T17:44:00.956Z,61.21
2022-08-07T17:46:43.150Z,61.66
2022-08-07T17:49:44.514Z,62.10
2022-08-07T17:52:35.298Z,62.44
2022-08-07T17:55:16.634Z,63.13
2022-08-07T17:58:08.426Z,63.29
2022-08-07T18:00:48.782Z,63.50
2022-08-07T18:04:04.460Z,63.61
2022-08-07T18:06:36.918Z,64.50
2022-08-07T18:09:08.540Z,64.96
2022-08-07T18:12:16.539Z,65.12
2022-08-07T18:15:00.341Z,64.79
2022-08-07T18:18:46.178Z,65.26
2022-08-07T18:21:02.972Z,65.62
2022-08-07T18:23:58.500Z,65.61
2022-08-07T18:26:56.513Z,65.93
2022-08-07T18:30:04.302Z,66.25
2022-08-07T18:33:30.432Z,66.36
2022-08-07T18:36:53.681Z,66.47
2022-08-07T18:40:06.407Z,66.68
2022-08-07T18:42:54.407Z,67.28
2022-08-07T18:46:25.016Z,67.14
2022-08-07T18:50:31.321Z,67.10
2022-08-07T18:52:34.592Z,67.34
2022-08-07T18:54:49.718Z,67.48
2022-08-07T18:57:43.801Z,67.68
2022-08-07T19:01:02.029Z,67.65
2022-08-07T19:03:52.363Z,68.27
2022-08-07T19:06:48.897Z,68.36
2022-08-07T19:09:59.027Z,68.36
2022-08-07T19:12:53.642Z,68.49
2022-08-07T19:16:05.131Z,68.64
2022-08-07T19:19:13.174Z,69.02
2022-08-07T19:22:31.150Z,69.16
2022-08-07T19:25:06.923Z,68.97
2022-08-07T19:28:30.249Z,69.49
2022-08-07T19:31:03.461Z,69.28
2022-08-07T19:33:34.859Z,69.36
2022-08-07T19:36:04.511Z,69.46
2022-08-07T19:38:35.201Z,69.32
2022-08-07T19:41:44.305Z,69.43
2022-08-07T19:44:21.578Z,69.77
2022-08-07T19:46:55.868Z,69.56
2022-08-07T19:49:57.073Z,69.08
2022-08-07T19:52:18.762Z,68.87
2022-08-07T19:54:56.323Z,68.88
2022-08-07T19:58:02.556Z,69.19
2022-08-07T20:00:34.494Z,68.91
2022-08-07T20:03:34.603Z,68.93
2022-08-07T20:06:02.683Z,68.91
2022-08-07T20:08:34.103Z,68.91
2022-08-07T20:11:10.054Z,68.80
2022-08-07T20:13:50.647Z,68.50
2022-08-07T20:16:35.568Z,68.47
2022-08-07T20:19:10.378Z,68.32
2022-08-07T20:21:47.411Z,68.34
2022-08-07T20:24:24.045Z,68.05
2022-08-07T20:27:04.344Z,68.45
2022-08-07T20:29:49.433Z,68.65
2022-08-07T20:32:39.994Z,68.92
2022-08-07T20:35:26.264Z,69.05
2022-08-07T20:37:59.708Z,69.16
2022-08-07T20:40:40.587Z,69.40
2022-08-07T20:43:19.217Z,69.57
2022-08-07T20:46:26.008Z,69.55
2022-08-07T20:48:57.951Z,69.86
2022-08-07T20:51:30.496Z,69.80
2022-08-07T20:54:11.754Z,69.71
2022-08-07T20:56:41.886Z,70.05
2022-08-07T21:00:04.219Z,70.08
2022-08-07T21:02:32.826Z,70.24
2022-08-07T21:05:04.464Z,69.93
2022-08-07T21:07:39.067Z,69.74
2022-08-07T21:10:11.615Z,69.89
2022-08-07T21:12:39.134Z,70.16
2022-08-07T21:15:10.211Z,70.01
2022-08-07T21:18:04.020Z,69.84
2022-08-07T21:20:39.236Z,70.00
2022-08-07T21:23:29.252Z,70.36
2022-08-07T21:26:08.788Z,70.29
2022-08-07T21:28:58.265Z,70.50
2022-08-07T21:31:49.933Z,70.39
2022-08-07T21:34:46.328Z,70.65
2022-08-07T21:37:58.465Z,70.71
2022-08-07T21:40:47.478Z,70.80
2022-08-07T21:44:03.644Z,71.00
2022-08-07T21:46:37.228Z,70.91
2022-08-07T21:49:26.827Z,70.44
2022-08-07T21:52:17.680Z,70.96
2022-08-07T21:55:29.916Z,70.94
2022-08-07T21:58:29.934Z,71.34
2022-08-07T22:01:13.988Z,70.98
2022-08-07T22:03:47.626Z,70.64
2022-08-07T22:06:30.424Z,71.02
2022-08-07T22:09:12.019Z,70.32
2022-08-07T22:12:05.050Z,70.60
2022-08-07T22:15:00.079Z,70.61
2022-08-07T22:17:59.151Z,70.69
2022-08-07T22:20:44.543Z,70.88
2022-08-07T22:23:46.467Z,70.81
2022-08-07T22:26:30.769Z,70.71
2022-08-07T22:29:50.177Z,70.97
2022-08-07T22:32:43.955Z,71.07
2022-08-07T22:35:11.707Z,71.16
2022-08-07T22:38:25.862Z,71.11
2022-08-07T22:42:18.786Z,71.28
2022-08-07T22:44:21.428Z,70.99
2022-08-07T22:47:04.188Z,71.08
2022-08-07T22:50:03.876Z,71.22
2022-08-07T22:53:17.344Z,71.40
2022-08-07T22:56:00.689Z,71.38
2022-08-07T22:59:16.766Z,71.83
2022-08-07T23:02:17.677Z,71.62
2022-08-07T23:06:07.730Z,71.55
2022-08-07T23:08:30.324Z,71.70
2022-08-07T23:11:22.282Z,72.08
2022-08-07T23:14:15.958Z,71.86
2022-08-07T23:17:08.616Z,72.07
2022-08-07T23:20:40.803Z,72.37
2022-08-07T23:24:06.858Z,72.52
2022-08-07T23:27:12.968Z,72.30
2022-08-07T23:30:37.207Z,72.49
2022-08-07T23:34:34.331Z,72.08
2022-08-07T23:37:23.465Z,72.42
2022-08-07T23:40:39.670Z,72.13
2022-08-07T23:43:37.861Z,72.08
2022-08-07T23:46:43.855Z,72.43
2022-08-07T23:49:58.135Z,72.15
2022-08-07T23:53:01.266Z,72.51
2022-08-07T23:56:11.974Z,72.55
